Time,TemperatureF,DewpointF,PressureIn,WindDirection,WindDirectionDegrees,WindSpeedMPH,WindSpeedGustMPH,Humidity,HourlyPrecipIn,Conditions,Clouds,dailyrainin,SoftwareType,DateUTC
2013-08-13 00:13:00,82.1,72.5,29.97,SSE,149,3.3,7.7,72,0.00,,,0.00,WUHU216DAVISVP2,2013-08-13 05:13:00,
2013-08-13 00:43:00,81.2,73.2,29.98,SE,145,1.1,7.7,76,0.00,,,0.00,WUHU216DAVISVP2,2013-08-13 05:43:00,
2013-08-13 01:13:00,80.3,73.8,29.97,South,172,1.1,6.6,80,0.00,,,0.00,WUHU216DAVISVP2,2013-08-13 06:13:00,
2013-08-13 01:43:00,79.6,74.2,29.97,SE,143,2.2,10.0,83,0.00,,,0.00,WUHU216DAVISVP2,2013-08-13 06:43:00,
2013-08-13 02:13:00,79.1,74.4,29.97,SSE,158,1.1,6.0,85,0.00,,,0.00,WUHU216DAVISVP2,2013-08-13 07:13:00,
2013-08-13 02:43:00,78.4,74.3,29.97,South,180,3.3,5.0,87,0.00,,,0.00,WUHU216DAVISVP2,2013-08-13 07:43:00,
2013-08-13 03:13:00,77.9,74.5,29.97,South,185,0.0,3.3,89,0.00,,,0.00,WUHU216DAVISVP2,2013-08-13 08:13:00,
2013-08-13 03:43:00,77.3,74.2,29.97,South,182,0.0,1.1,90,0.00,,,0.00,WUHU216DAVISVP2,2013-08-13 08:43:00,
2013-08-13 04:14:00,76.7,74.0,29.97,SSE,167,0.0,1.0,91,0.00,,,0.00,WUHU216DAVISVP2,2013-08-13 09:14:00,
2013-08-13 04:44:00,76.5,73.8,29.97,South,177,1.1,3.3,91,0.00,,,0.00,WUHU216DAVISVP2,2013-08-13 09:44:00,
2013-08-13 05:14:00,76.2,73.8,29.97,South,170,0.0,3.3,92,0.00,,,0.00,WUHU216DAVISVP2,2013-08-13 10:14:00,
2013-08-13 05:44:00,76.0,73.6,29.97,South,183,0.0,3.3,92,0.00,,,0.00,WUHU216DAVISVP2,2013-08-13 10:44:00,
2013-08-13 06:14:00,76.6,74.2,29.98,SSE,156,2.2,7.7,92,0.00,,,0.00,WUHU216DAVISVP2,2013-08-13 11:14:00,
2013-08-13 06:44:00,77.1,74.0,29.98,SSW,193,3.3,9.9,90,0.00,,,0.00,WUHU216DAVISVP2,2013-08-13 11:44:00,
2013-08-13 07:14:00,77.3,73.9,29.98,SSW,201,4.4,8.8,89,0.00,,,0.00,WUHU216DAVISVP2,2013-08-13 12:14:00,
2013-08-13 07:44:00,77.3,74.2,29.98,SSW,204,2.2,7.7,90,0.00,,,0.00,WUHU216DAVISVP2,2013-08-13 12:44:00,
2013-08-13 08:14:00,77.8,74.4,29.99,SSW,199,4.4,8.8,89,0.00,,,0.00,WUHU216DAVISVP2,2013-08-13 13:14:00,
2013-08-13 08:44:00,78.7,74.6,29.99,South,180,6.6,7.7,87,0.00,,,0.00,WUHU216DAVISVP2,2013-08-13 13:44:00,
2013-08-13 09:14:00,79.5,74.1,30.00,South,182,4.4,11.0,83,0.00,,,0.00,WUHU216DAVISVP2,2013-08-13 14:14:00,
2013-08-13 09:44:00,81.0,74.5,30.00,SW,220,3.3,9.0,80,0.00,,,0.00,WUHU216DAVISVP2,2013-08-13 14:44:00,
2013-08-13 10:14:00,85.3,75.2,30.00,SSE,161,7.7,11.0,71,0.00,,,0.00,WUHU216DAVISVP2,2013-08-13 15:14:00,
2013-08-13 10:44:00,87.3,74.1,30.00,South,175,5.5,7.7,64,0.00,,,0.00,WUHU216DAVISVP2,2013-08-13 15:44:00,
2013-08-13 11:14:00,88.4,74.2,29.99,SSE,155,3.3,8.8,62,0.00,,,0.00,WUHU216DAVISVP2,2013-08-13 16:14:00,
2013-08-13 11:44:00,90.8,72.8,29.99,South,176,3.3,9.0,55,0.00,,,0.00,WUHU216DAVISVP2,2013-08-13 16:44:00,
2013-08-13 12:14:00,92.6,71.6,29.98,SE,126,3.3,11.0,50,0.00,,,0.00,WUHU216DAVISVP2,2013-08-13 17:14:00,
2013-08-13 12:44:00,93.5,71.2,29.97,SSW,197,4.4,9.9,48,0.00,,,0.00,WUHU216DAVISVP2,2013-08-13 17:44:00,
2013-08-13 13:14:00,95.3,70.2,29.96,West,266,3.3,10.0,44,0.00,,,0.00,WUHU216DAVISVP2,2013-08-13 18:14:00,
2013-08-13 13:44:00,95.9,69.4,29.95,WSW,238,2.2,10.0,42,0.00,,,0.00,WUHU216DAVISVP2,2013-08-13 18:44:00,
2013-08-13 14:14:00,97.1,69.0,29.93,SSE,165,4.4,9.9,40,0.00,,,0.00,WUHU216DAVISVP2,2013-08-13 19:14:00,
2013-08-13 14:44:00,98.3,68.6,29.92,SE,145,3.3,11.0,38,0.00,,,0.00,WUHU216DAVISVP2,2013-08-13 19:44:00,
2013-08-13 15:14:00,98.8,68.2,29.90,South,174,7.7,10.0,37,0.00,,,0.00,WUHU216DAVISVP2,2013-08-13 20:14:00,
2013-08-13 15:44:00,99.7,67.4,29.89,East,87,3.3,9.9,35,0.00,,,0.00,WUHU216DAVISVP2,2013-08-13 20:44:00,
2013-08-13 16:14:00,100.2,67.0,29.87,South,174,6.6,8.8,34,0.00,,,0.00,WUHU216DAVISVP2,2013-08-13 21:14:00,
2013-08-13 16:44:00,100.4,66.3,29.86,SSE,161,0.0,6.6,33,0.00,,,0.00,WUHU216DAVISVP2,2013-08-13 21:44:00,
2013-08-13 17:14:00,100.4,66.3,29.85,West,266,2.2,9.0,33,0.00,,,0.00,WUHU216DAVISVP2,2013-08-13 22:14:00,
2013-08-13 17:44:00,99.6,65.6,29.84,North,355,0.0,7.0,33,0.00,,,0.00,WUHU216DAVISVP2,2013-08-13 22:44:00,
2013-08-13 18:14:00,100.0,66.0,29.83,SSE,154,2.2,7.0,33,0.00,,,0.00,WUHU216DAVISVP2,2013-08-13 23:14:00,
2013-08-13 18:44:00,99.1,65.2,29.83,South,185,3.3,5.0,33,0.00,,,0.00,WUHU216DAVISVP2,2013-08-13 23:44:00,
2013-08-13 19:14:00,98.1,65.1,29.83,SE,145,7.7,7.7,34,0.00,,,0.00,WUHU216DAVISVP2,2013-08-14 00:14:00,
2013-08-13 19:44:00,95.7,64.7,29.83,SSE,164,1.1,4.0,36,0.00,,,0.00,WUHU216DAVISVP2,2013-08-14 00:44:00,
2013-08-13 20:14:00,93.2,65.5,29.84,SSE,164,0.0,1.1,40,0.00,,,0.00,WUHU216DAVISVP2,2013-08-14 01:14:00,
2013-08-13 20:44:00,90.7,66.1,29.85,SSE,164,0.0,0.0,44,0.00,,,0.00,WUHU216DAVISVP2,2013-08-14 01:44:00,
2013-08-13 21:14:00,88.8,66.9,29.86,SSE,164,0.0,0.0,48,0.00,,,0.00,WUHU216DAVISVP2,2013-08-14 02:14:00,
2013-08-13 21:44:00,88.4,68.3,29.88,SSE,153,2.2,11.0,51,0.00,,,0.00,WUHU216DAVISVP2,2013-08-14 02:44:00,
2013-08-13 22:14:00,88.3,71.6,29.89,ESE,107,3.3,8.8,57,0.00,,,0.00,WUHU216DAVISVP2,2013-08-14 03:14:00,
2013-08-13 22:44:00,87.0,71.9,29.90,SE,126,3.3,10.0,60,0.00,,,0.00,WUHU216DAVISVP2,2013-08-14 03:44:00,
2013-08-13 23:14:00,85.6,72.4,29.90,SSE,155,1.1,8.0,64,0.00,,,0.00,WUHU216DAVISVP2,2013-08-14 04:14:00,
2013-08-13 23:44:00,84.6,71.9,29.90,SSE,155,7.7,11.0,65,0.00,,,0.00,WUHU216DAVISVP2,2013-08-14 04:44:00,